Time;durP1;ratioP1;P1;durP2;ratioP2;P2;SDS_P1;SDS_P2;PMS_P1;PMS_P2;Temp;Humidity;BMP_temperature;BMP_pressure;BME280_temperature;BME280_humidity;BME280_pressure;Samples;Min_cycle;Max_cycle;Signal;HPM_P1;HPM_P2
2024/01/24 00:00:29;;;;;;;11.88;2.97;;;;;;;;;;5073654;28;20024;-67
2024/01/24 00:02:54;;;;;;;6.82;1.90;;;;;;;;;;5073103;28;20074;-68
2024/01/24 00:05:20;;;;;;;9.45;2.10;;;;;;;;;;5073249;28;20395;-68
2024/01/24 00:07:45;;;;;;;6.32;2.17;;;;;;;;;;5073521;28;20064;-68
2024/01/24 00:10:11;;;;;;;8.07;2.50;;;;;;;;;;5073441;28;20028;-68
2024/01/24 00:12:36;;;;;;;10.70;2.22;;;;;;;;;;5073138;28;20020;-68
2024/01/24 00:15:02;;;;;;;9.68;2.22;;;;;;;;;;5073408;28;20023;-68
2024/01/24 00:17:28;;;;;;;10.10;2.20;;;;;;;;;;5073256;28;20059;-68
2024/01/24 00:19:53;;;;;;;7.93;2.33;;;;;;;;;;5073275;28;20468;-68
2024/01/24 00:22:18;;;;;;;6.07;1.95;;;;;;;;;;5072276;28;20117;-68
2024/01/24 00:24:44;;;;;;;8.15;2.97;;;;;;;;;;5072839;28;20383;-68
2024/01/24 00:27:11;;;;;;;10.55;2.45;;;;;;;;;;5072545;28;20544;-69
2024/01/24 00:29:36;;;;;;;11.73;2.78;;;;;;;;;;5062592;28;20455;-68
2024/01/24 00:32:03;;;;;;;6.82;2.53;;;;;;;;;;5072612;28;20070;-68
2024/01/24 00:34:29;;;;;;;5.72;1.88;;;;;;;;;;5072507;28;20028;-68
2024/01/24 00:36:55;;;;;;;7.40;2.10;;;;;;;;;;5072464;28;20544;-68
2024/01/24 00:39:20;;;;;;;16.17;2.60;;;;;;;;;;5072400;28;20029;-68
2024/01/24 00:41:47;;;;;;;7.82;1.80;;;;;;;;;;5072327;28;20485;-68
2024/01/24 00:44:12;;;;;;;7.63;1.83;;;;;;;;;;5072762;28;20356;-68
2024/01/24 00:46:38;;;;;;;8.05;1.73;;;;;;;;;;5072008;28;20023;-68
2024/01/24 00:49:08;;;;;;;7.70;1.88;;;;;;;;;;5072493;28;20052;-68
2024/01/24 00:51:34;;;;;;;5.70;1.85;;;;;;;;;;5072302;28;20086;-68
2024/01/24 00:53:59;;;;;;;17.45;2.45;;;;;;;;;;5072344;28;20474;-68
2024/01/24 00:56:24;;;;;;;10.70;1.73;;;;;;;;;;5072185;28;20028;-68
2024/01/24 00:58:50;;;;;;;11.90;2.83;;;;;;;;;;5072341;28;20379;-68
2024/01/24 01:01:15;;;;;;;8.63;1.80;;;;;;;;;;5072216;28;20017;-68
2024/01/24 01:03:41;;;;;;;13.70;2.20;;;;;;;;;;5072337;28;20106;-68
2024/01/24 01:06:06;;;;;;;7.88;2.10;;;;;;;;;;5072076;28;20031;-68
2024/01/24 01:08:32;;;;;;;6.20;1.90;;;;;;;;;;5072129;28;20020;-68
2024/01/24 01:10:57;;;;;;;9.35;2.42;;;;;;;;;;5071989;28;20025;-68
2024/01/24 01:13:23;;;;;;;10.50;2.53;;;;;;;;;;5072078;28;20471;-68
2024/01/24 01:15:49;;;;;;;9.25;2.15;;;;;;;;;;5071918;28;20056;-68
2024/01/24 01:18:14;;;;;;;12.55;2.25;;;;;;;;;;5072051;28;20053;-68
2024/01/24 01:20:39;;;;;;;8.35;2.22;;;;;;;;;;5072069;28;20013;-68
2024/01/24 01:23:05;;;;;;;7.45;1.90;;;;;;;;;;5072064;28;20379;-68
2024/01/24 01:25:30;;;;;;;7.55;2.50;;;;;;;;;;5071710;28;20060;-68
2024/01/24 01:27:56;;;;;;;7.13;1.80;;;;;;;;;;5061910;28;20025;-68
2024/01/24 01:30:23;;;;;;;8.77;2.50;;;;;;;;;;5071827;28;20025;-67
2024/01/24 01:32:49;;;;;;;6.38;1.50;;;;;;;;;;5071964;28;20388;-67
2024/01/24 01:35:14;;;;;;;10.05;2.25;;;;;;;;;;5072369;28;20087;-67
2024/01/24 01:37:40;;;;;;;18.33;2.40;;;;;;;;;;5066550;28;20040;-68
2024/01/24 01:40:06;;;;;;;4.93;1.80;;;;;;;;;;5066258;28;20033;-67
2024/01/24 01:42:32;;;;;;;7.43;2.42;;;;;;;;;;5054308;28;20024;-67
2024/01/24 01:44:58;;;;;;;6.25;2.13;;;;;;;;;;5072101;28;20143;-67
2024/01/24 01:47:25;;;;;;;6.00;1.88;;;;;;;;;;5072193;28;20028;-67
2024/01/24 01:49:50;;;;;;;11.25;2.53;;;;;;;;;;5072243;28;20101;-67
2024/01/24 01:52:17;;;;;;;7.95;2.65;;;;;;;;;;5072303;28;20471;-67
2024/01/24 01:54:43;;;;;;;6.57;1.88;;;;;;;;;;5072087;28;20048;-67
2024/01/24 01:57:11;;;;;;;9.48;2.58;;;;;;;;;;5072288;28;20032;-67
2024/01/24 01:59:40;;;;;;;9.85;2.28;;;;;;;;;;5072096;28;20017;-67
2024/01/24 02:02:06;;;;;;;6.97;2.33;;;;;;;;;;5072152;28;20060;-68
2024/01/24 02:04:31;;;;;;;6.50;2.17;;;;;;;;;;5072151;28;20502;-67
2024/01/24 02:06:57;;;;;;;15.65;2.90;;;;;;;;;;5071902;28;20032;-67
2024/01/24 02:09:23;;;;;;;8.38;2.25;;;;;;;;;;5072047;28;20025;-68
2024/01/24 02:11:49;;;;;;;7.95;2.03;;;;;;;;;;5072032;28;20021;-66
2024/01/24 02:14:14;;;;;;;9.38;2.17;;;;;;;;;;5072109;28;20027;-66
2024/01/24 02:16:40;;;;;;;5.65;2.17;;;;;;;;;;5071974;28;20368;-66
2024/01/24 02:19:06;;;;;;;6.72;2.13;;;;;;;;;;5071971;28;20487;-67
2024/01/24 02:21:32;;;;;;;6.40;1.88;;;;;;;;;;5071720;28;20025;-67
2024/01/24 02:23:59;;;;;;;3.13;1.90;;;;;;;;;;5071867;28;20122;-67
2024/01/24 02:26:25;;;;;;;7.55;2.58;;;;;;;;;;5072284;28;20028;-67
2024/01/24 02:28:51;;;;;;;4.25;2.10;;;;;;;;;;5075699;28;20352;-67
2024/01/24 02:31:16;;;;;;;4.95;1.70;;;;;;;;;;5075568;28;20028;-71
2024/01/24 02:33:41;;;;;;;6.20;2.42;;;;;;;;;;5057584;28;20024;-71
2024/01/24 02:36:08;;;;;;;8.48;2.40;;;;;;;;;;5075113;28;20028;-67
2024/01/24 02:38:33;;;;;;;8.18;2.55;;;;;;;;;;5075185;28;20025;-69
2024/01/24 02:40:58;;;;;;;7.22;2.35;;;;;;;;;;5075504;28;20357;-73
2024/01/24 02:43:24;;;;;;;6.95;2.45;;;;;;;;;;5075518;28;20021;-68
2024/01/24 02:45:49;;;;;;;11.32;2.72;;;;;;;;;;5075074;28;20510;-70
2024/01/24 02:48:15;;;;;;;4.22;2.20;;;;;;;;;;5075130;28;20032;-72
2024/01/24 02:50:41;;;;;;;6.07;2.47;;;;;;;;;;5074929;28;20036;-68
2024/01/24 02:53:06;;;;;;;5.75;2.13;;;;;;;;;;5074986;28;20070;-68
2024/01/24 02:55:31;;;;;;;9.15;3.03;;;;;;;;;;5075102;28;20115;-69
2024/01/24 02:57:57;;;;;;;5.85;2.55;;;;;;;;;;5075142;28;20035;-72
2024/01/24 03:00:22;;;;;;;5.07;2.47;;;;;;;;;;5075093;28;20033;-67
2024/01/24 03:02:48;;;;;;;3.95;2.13;;;;;;;;;;5074996;28;20024;-71
2024/01/24 03:05:13;;;;;;;3.72;2.60;;;;;;;;;;5074702;28;20410;-68
2024/01/24 03:07:40;;;;;;;4.38;2.47;;;;;;;;;;5074993;28;20032;-68
2024/01/24 03:10:08;;;;;;;5.15;3.10;;;;;;;;;;5074830;28;20020;-70
2024/01/24 03:12:33;;;;;;;6.72;3.38;;;;;;;;;;5074746;28;20029;-71
2024/01/24 03:14:59;;;;;;;4.75;3.17;;;;;;;;;;5074797;28;20044;-71
2024/01/24 03:17:25;;;;;;;3.83;2.22;;;;;;;;;;5074584;28;20112;-69
2024/01/24 03:19:50;;;;;;;5.43;3.35;;;;;;;;;;5074499;28;20103;-68
2024/01/24 03:22:15;;;;;;;3.33;2.90;;;;;;;;;;5074615;28;20078;-68
2024/01/24 03:24:41;;;;;;;6.40;3.50;;;;;;;;;;5074497;28;20070;-71
2024/01/24 03:27:06;;;;;;;5.43;3.38;;;;;;;;;;5074523;28;20025;-67
2024/01/24 03:29:32;;;;;;;6.45;3.70;;;;;;;;;;5074504;28;20024;-69
2024/01/24 03:31:57;;;;;;;5.95;3.45;;;;;;;;;;5074423;28;20510;-71
2024/01/24 03:34:23;;;;;;;5.28;3.03;;;;;;;;;;5074312;28;20065;-69
2024/01/24 03:36:49;;;;;;;3.53;2.30;;;;;;;;;;5074344;28;20067;-70
2024/01/24 03:39:14;;;;;;;3.50;1.42;;;;;;;;;;5074144;28;20024;-68
2024/01/24 03:41:40;;;;;;;2.33;1.20;;;;;;;;;;5074218;28;20065;-71
2024/01/24 03:44:05;;;;;;;2.38;1.60;;;;;;;;;;5074253;28;20021;-70
2024/01/24 03:46:31;;;;;;;2.55;1.08;;;;;;;;;;5055996;28;20126;-70
2024/01/24 03:48:56;;;;;;;3.53;1.27;;;;;;;;;;5074016;28;20378;-70
2024/01/24 03:51:22;;;;;;;2.15;1.10;;;;;;;;;;5074003;28;20417;-67
2024/01/24 03:53:47;;;;;;;1.70;1.05;;;;;;;;;;5073793;28;20047;-69
2024/01/24 03:56:13;;;;;;;1.88;1.15;;;;;;;;;;5073837;28;20025;-68
2024/01/24 03:58:38;;;;;;;1.33;0.93;;;;;;;;;;5074012;28;20060;-67
2024/01/24 04:01:04;;;;;;;3.28;1.10;;;;;;;;;;5073897;28;20020;-68
2024/01/24 04:03:30;;;;;;;2.63;1.15;;;;;;;;;;5073503;28;20028;-68
2024/01/24 04:05:55;;;;;;;1.67;1.13;;;;;;;;;;5073724;28;20038;-67
2024/01/24 04:08:21;;;;;;;1.67;0.90;;;;;;;;;;5073756;28;20418;-68
2024/01/24 04:10:47;;;;;;;2.63;1.08;;;;;;;;;;5073708;28;20449;-68
2024/01/24 04:13:12;;;;;;;1.52;1.05;;;;;;;;;;5073620;28;20421;-68
2024/01/24 04:15:38;;;;;;;1.40;1.10;;;;;;;;;;5073593;28;20033;-68
2024/01/24 04:18:03;;;;;;;2.53;1.20;;;;;;;;;;5073192;28;20020;-67
2024/01/24 04:20:29;;;;;;;1.48;1.08;;;;;;;;;;5073632;28;20024;-67
2024/01/24 04:22:54;;;;;;;1.83;1.00;;;;;;;;;;5073301;28;20033;-68
2024/01/24 04:25:20;;;;;;;1.20;0.90;;;;;;;;;;5073038;28;20101;-67
2024/01/24 04:27:45;;;;;;;1.90;1.00;;;;;;;;;;5073339;28;20398;-67
2024/01/24 04:30:11;;;;;;;1.27;0.98;;;;;;;;;;5073410;28;20037;-67
2024/01/24 04:32:37;;;;;;;1.75;1.40;;;;;;;;;;5073179;28;20032;-67
2024/01/24 04:35:02;;;;;;;1.48;1.20;;;;;;;;;;5073177;28;20035;-67
2024/01/24 04:37:28;;;;;;;1.83;1.33;;;;;;;;;;5088649;28;20032;-67
2024/01/24 04:39:53;;;;;;;2.00;1.48;;;;;;;;;;5072756;28;20036;-67
2024/01/24 04:42:19;;;;;;;1.52;1.10;;;;;;;;;;5073113;28;20123;-68
2024/01/24 04:44:44;;;;;;;3.17;1.52;;;;;;;;;;5072849;28;20020;-67
2024/01/24 04:47:13;;;;;;;3.33;1.83;;;;;;;;;;5072766;28;20089;-67
2024/01/24 04:49:39;;;;;;;2.00;1.30;;;;;;;;;;5072598;28;20032;-67
2024/01/24 04:52:04;;;;;;;2.22;1.45;;;;;;;;;;5072989;28;20077;-67
2024/01/24 04:54:34;;;;;;;2.65;1.98;;;;;;;;;;5072752;28;20132;-67
2024/01/24 04:57:00;;;;;;;4.88;1.70;;;;;;;;;;5072977;28;20051;-67
2024/01/24 04:59:25;;;;;;;2.40;1.65;;;;;;;;;;5072765;28;20519;-67
2024/01/24 05:01:50;;;;;;;5.00;1.83;;;;;;;;;;5072580;28;20069;-67
2024/01/24 05:04:16;;;;;;;3.15;1.60;;;;;;;;;;5072698;28;20017;-67
2024/01/24 05:06:41;;;;;;;3.10;1.73;;;;;;;;;;5072634;28;20491;-67
2024/01/24 05:09:07;;;;;;;4.10;1.67;;;;;;;;;;5072682;28;20032;-67
2024/01/24 05:11:32;;;;;;;1.63;1.33;;;;;;;;;;5072633;28;20024;-67
2024/01/24 05:14:00;;;;;;;2.20;1.58;;;;;;;;;;5072611;28;20497;-68
2024/01/24 05:16:26;;;;;;;3.22;1.52;;;;;;;;;;5072423;28;20379;-67
2024/01/24 05:18:52;;;;;;;1.90;1.30;;;;;;;;;;5072616;28;20033;-67
2024/01/24 05:21:17;;;;;;;3.47;1.50;;;;;;;;;;5072486;28;20039;-67
2024/01/24 05:23:44;;;;;;;2.78;1.70;;;;;;;;;;5072705;28;20632;-68
2024/01/24 05:26:09;;;;;;;5.30;1.80;;;;;;;;;;5072375;28;20078;-69
2024/01/24 05:28:35;;;;;;;3.13;1.73;;;;;;;;;;5072444;28;20032;-68
2024/01/24 05:31:00;;;;;;;3.53;1.90;;;;;;;;;;5072270;28;20036;-68
2024/01/24 05:33:25;;;;;;;2.55;1.60;;;;;;;;;;5072387;28;20028;-68
2024/01/24 05:35:52;;;;;;;2.75;1.52;;;;;;;;;;5072419;28;20032;-67
2024/01/24 05:38:17;;;;;;;2.05;1.40;;;;;;;;;;5072178;28;20035;-68
2024/01/24 05:40:43;;;;;;;3.33;1.70;;;;;;;;;;5072167;28;20025;-68
2024/01/24 05:43:08;;;;;;;2.58;1.25;;;;;;;;;;5072125;28;20032;-67
2024/01/24 05:45:34;;;;;;;3.40;1.42;;;;;;;;;;5071836;28;20031;-68
2024/01/24 05:47:59;;;;;;;1.95;1.30;;;;;;;;;;5072100;28;20036;-68
2024/01/24 05:50:25;;;;;;;2.55;1.23;;;;;;;;;;5072230;28;20040;-68
2024/01/24 05:52:50;;;;;;;1.95;1.30;;;;;;;;;;5072296;28;20024;-68
2024/01/24 05:55:16;;;;;;;2.97;1.35;;;;;;;;;;5071829;28;20048;-68
2024/01/24 05:57:41;;;;;;;1.50;1.20;;;;;;;;;;5072163;28;20032;-68
2024/01/24 06:00:09;;;;;;;2.60;1.52;;;;;;;;;;5071632;28;20132;-67
2024/01/24 06:02:36;;;;;;;2.78;1.38;;;;;;;;;;5074373;28;20024;-68
2024/01/24 06:05:02;;;;;;;1.65;1.27;;;;;;;;;;5076193;28;20021;-68
2024/01/24 06:07:27;;;;;;;2.13;1.35;;;;;;;;;;5075903;28;20098;-68
2024/01/24 06:09:52;;;;;;;3.65;1.30;;;;;;;;;;5075870;28;20020;-68
2024/01/24 06:12:18;;;;;;;2.05;1.00;;;;;;;;;;5075934;28;20024;-68
2024/01/24 06:14:44;;;;;;;1.50;1.05;;;;;;;;;;5075635;28;20123;-68
2024/01/24 06:17:09;;;;;;;3.20;1.30;;;;;;;;;;5075974;28;20100;-69
2024/01/24 06:19:35;;;;;;;3.70;1.50;;;;;;;;;;5075856;28;20196;-68
2024/01/24 06:22:00;;;;;;;2.70;1.55;;;;;;;;;;5075788;28;20528;-68
2024/01/24 06:24:26;;;;;;;2.50;1.40;;;;;;;;;;5075539;28;20020;-68
2024/01/24 06:26:51;;;;;;;4.97;2.08;;;;;;;;;;5075751;28;20043;-68
2024/01/24 06:29:19;;;;;;;2.72;1.10;;;;;;;;;;5075357;28;20055;-68
2024/01/24 06:31:45;;;;;;;1.65;0.80;;;;;;;;;;5075499;28;20353;-68
2024/01/24 06:34:12;;;;;;;2.78;0.88;;;;;;;;;;5075372;28;20403;-68
2024/01/24 06:36:38;;;;;;;4.10;1.42;;;;;;;;;;5075357;28;20031;-68
2024/01/24 06:39:06;;;;;;;1.85;0.90;;;;;;;;;;5075253;28;20024;-68
2024/01/24 06:41:31;;;;;;;1.65;0.90;;;;;;;;;;5075317;28;20096;-70
2024/01/24 06:43:57;;;;;;;1.33;0.80;;;;;;;;;;5057240;28;20483;-69
2024/01/24 06:46:23;;;;;;;2.53;0.70;;;;;;;;;;5075236;28;20021;-68
2024/01/24 06:48:49;;;;;;;1.95;0.70;;;;;;;;;;5074989;28;20090;-67
2024/01/24 06:51:15;;;;;;;1.05;0.60;;;;;;;;;;5075176;28;20048;-68
2024/01/24 06:53:41;;;;;;;1.13;0.60;;;;;;;;;;5074864;28;20056;-68
2024/01/24 06:56:08;;;;;;;1.77;0.70;;;;;;;;;;5075004;28;20028;-68
2024/01/24 06:58:34;;;;;;;0.90;0.77;;;;;;;;;;5074668;28;20067;-68
2024/01/24 07:00:59;;;;;;;0.93;0.60;;;;;;;;;;5057276;28;20024;-68
2024/01/24 07:03:24;;;;;;;1.45;0.80;;;;;;;;;;5074994;28;20052;-68
2024/01/24 07:05:51;;;;;;;2.22;0.95;;;;;;;;;;5075011;28;20021;-68
2024/01/24 07:08:16;;;;;;;2.15;1.00;;;;;;;;;;5074808;28;20101;-68
2024/01/24 07:10:42;;;;;;;2.95;1.20;;;;;;;;;;5074752;28;20025;-67
2024/01/24 07:13:08;;;;;;;1.67;1.10;;;;;;;;;;5074300;28;20447;-68
2024/01/24 07:15:33;;;;;;;4.75;1.40;;;;;;;;;;5074755;28;20052;-68
2024/01/24 07:17:59;;;;;;;3.75;1.20;;;;;;;;;;5074654;28;20024;-68
2024/01/24 07:20:24;;;;;;;7.20;1.70;;;;;;;;;;5074826;28;20024;-68
2024/01/24 07:22:50;;;;;;;3.13;1.48;;;;;;;;;;5074694;28;20028;-68
2024/01/24 07:25:19;;;;;;;7.00;1.38;;;;;;;;;;5056399;28;20470;-68
2024/01/24 07:27:45;;;;;;;5.43;1.23;;;;;;;;;;5074192;28;20024;-68
2024/01/24 07:30:11;;;;;;;8.43;2.88;;;;;;;;;;5074362;28;20035;-68
2024/01/24 07:32:39;;;;;;;4.95;1.20;;;;;;;;;;5074316;28;20021;-68
2024/01/24 07:35:05;;;;;;;3.08;1.08;;;;;;;;;;5074385;28;20021;-68
2024/01/24 07:37:31;;;;;;;6.03;1.20;;;;;;;;;;5074139;28;20081;-68
2024/01/24 07:39:57;;;;;;;5.13;1.25;;;;;;;;;;5074277;28;20140;-68
2024/01/24 07:42:22;;;;;;;8.80;1.52;;;;;;;;;;5074187;28;20032;-69
2024/01/24 07:44:48;;;;;;;9.55;1.58;;;;;;;;;;5073761;28;20430;-69
2024/01/24 07:47:13;;;;;;;5.60;1.00;;;;;;;;;;5074105;28;20444;-68
2024/01/24 07:49:39;;;;;;;4.32;1.30;;;;;;;;;;5072345;28;20033;-69
2024/01/24 07:52:05;;;;;;;8.70;1.33;;;;;;;;;;5074023;28;20035;-69
2024/01/24 07:54:30;;;;;;;4.93;1.55;;;;;;;;;;5072364;28;20078;-69
2024/01/24 07:56:56;;;;;;;4.63;1.13;;;;;;;;;;5068217;28;20074;-69
2024/01/24 07:59:21;;;;;;;7.63;1.83;;;;;;;;;;5064013;28;20468;-69
2024/01/24 08:01:47;;;;;;;7.28;1.50;;;;;;;;;;5072166;28;20074;-69
2024/01/24 08:04:13;;;;;;;5.55;1.00;;;;;;;;;;5073485;28;20588;-69
2024/01/24 08:06:39;;;;;;;6.28;1.52;;;;;;;;;;5073019;28;20107;-69
2024/01/24 08:09:05;;;;;;;8.25;2.15;;;;;;;;;;5073502;28;20154;-69
2024/01/24 08:11:30;;;;;;;8.05;1.75;;;;;;;;;;5073245;28;20349;-69
2024/01/24 08:13:56;;;;;;;9.63;1.00;;;;;;;;;;5073230;28;20032;-69
2024/01/24 08:16:21;;;;;;;4.32;1.35;;;;;;;;;;5073110;28;20025;-69
2024/01/24 08:18:48;;;;;;;4.10;1.10;;;;;;;;;;5073254;28;20124;-69
2024/01/24 08:21:14;;;;;;;8.18;1.33;;;;;;;;;;5055359;28;20430;-69
2024/01/24 08:23:39;;;;;;;8.25;1.48;;;;;;;;;;5072827;28;20075;-69
2024/01/24 08:26:05;;;;;;;8.43;1.58;;;;;;;;;;5054292;28;20487;-69
2024/01/24 08:28:30;;;;;;;8.10;1.52;;;;;;;;;;5072306;28;20111;-69
2024/01/24 08:30:55;;;;;;;11.35;1.98;;;;;;;;;;5065399;28;20103;-69
2024/01/24 08:33:21;;;;;;;10.75;1.73;;;;;;;;;;5072832;28;20024;-69
2024/01/24 08:35:47;;;;;;;8.30;1.77;;;;;;;;;;5072930;28;20032;-69
2024/01/24 08:38:13;;;;;;;10.70;2.10;;;;;;;;;;5072802;28;20021;-69
2024/01/24 08:40:39;;;;;;;15.90;4.82;;;;;;;;;;5072445;28;20036;-69
2024/01/24 08:43:04;;;;;;;8.77;2.17;;;;;;;;;;5072738;28;20039;-69
2024/01/24 08:45:31;;;;;;;8.55;1.90;;;;;;;;;;5072252;28;20135;-69
2024/01/24 08:47:56;;;;;;;13.98;2.20;;;;;;;;;;5072657;28;20382;-69
2024/01/24 08:50:22;;;;;;;8.52;2.10;;;;;;;;;;5072509;28;20107;-69
2024/01/24 08:52:50;;;;;;;7.97;1.70;;;;;;;;;;5072494;28;20074;-69
2024/01/24 08:55:16;;;;;;;8.80;2.00;;;;;;;;;;5072315;28;20144;-69
2024/01/24 08:57:42;;;;;;;14.57;3.40;;;;;;;;;;5072562;28;20032;-69
2024/01/24 09:00:09;;;;;;;9.00;1.70;;;;;;;;;;5072391;28;20081;-69
2024/01/24 09:02:34;;;;;;;9.65;2.70;;;;;;;;;;5072237;28;20024;-69
2024/01/24 09:05:00;;;;;;;12.55;2.30;;;;;;;;;;5072442;28;20157;-69
2024/01/24 09:07:26;;;;;;;14.20;2.85;;;;;;;;;;5071911;28;20028;-69
2024/01/24 09:09:51;;;;;;;12.45;2.30;;;;;;;;;;5054483;28;20036;-69
2024/01/24 09:12:17;;;;;;;4.07;1.42;;;;;;;;;;5072363;28;20129;-69
2024/01/24 09:14:46;;;;;;;9.07;2.15;;;;;;;;;;5071997;28;20035;-69
2024/01/24 09:17:12;;;;;;;11.27;3.25;;;;;;;;;;5072241;28;20546;-70
2024/01/24 09:19:41;;;;;;;8.60;1.77;;;;;;;;;;5072187;28;20123;-70
2024/01/24 09:22:09;;;;;;;5.27;1.73;;;;;;;;;;5071990;28;20440;-70
2024/01/24 09:24:35;;;;;;;7.03;1.60;;;;;;;;;;5072174;28;20029;-70
2024/01/24 09:27:00;;;;;;;11.30;2.65;;;;;;;;;;5072171;28;20040;-70
2024/01/24 09:29:26;;;;;;;14.93;2.60;;;;;;;;;;5072000;28;20541;-70
2024/01/24 09:31:52;;;;;;;9.00;2.13;;;;;;;;;;5072262;28;20029;-70
2024/01/24 09:34:17;;;;;;;15.73;2.35;;;;;;;;;;5071957;28;20040;-70
2024/01/24 09:36:43;;;;;;;11.68;2.50;;;;;;;;;;5071655;28;20033;-70
2024/01/24 09:39:09;;;;;;;9.20;2.60;;;;;;;;;;5071716;28;20048;-70
2024/01/24 09:41:43;;;;;;;12.27;2.38;;;;;;;;;;5071959;28;20024;-70
2024/01/24 09:44:11;;;;;;;9.07;2.25;;;;;;;;;;5071651;28;20027;-69
2024/01/24 09:46:37;;;;;;;8.65;1.90;;;;;;;;;;5071755;28;20024;-70
2024/01/24 09:49:05;;;;;;;8.90;2.53;;;;;;;;;;5071886;28;20025;-70
2024/01/24 09:51:33;;;;;;;12.05;1.40;;;;;;;;;;5071414;28;20155;-70
2024/01/24 09:54:03;;;;;;;11.68;2.22;;;;;;;;;;5071524;28;20040;-69
2024/01/24 09:56:30;;;;;;;10.85;2.50;;;;;;;;;;5071930;28;20386;-70
2024/01/24 09:58:55;;;;;;;9.77;1.77;;;;;;;;;;5071871;28;20028;-70
2024/01/24 10:01:21;;;;;;;9.48;1.98;;;;;;;;;;5071760;28;20024;-70
2024/01/24 10:03:48;;;;;;;9.88;1.83;;;;;;;;;;5071611;28;20051;-70
2024/01/24 10:06:14;;;;;;;7.35;1.73;;;;;;;;;;5071302;28;20020;-70
2024/01/24 10:08:39;;;;;;;10.38;2.00;;;;;;;;;;5071532;28;20028;-69
2024/01/24 10:11:06;;;;;;;12.32;2.15;;;;;;;;;;5071910;28;20021;-70
2024/01/24 10:13:31;;;;;;;12.27;2.88;;;;;;;;;;5071582;28;20104;-70
2024/01/24 10:15:59;;;;;;;9.25;2.70;;;;;;;;;;5071609;28;20535;-70
2024/01/24 10:18:24;;;;;;;5.60;1.38;;;;;;;;;;5071746;28;20055;-70
2024/01/24 10:20:50;;;;;;;6.57;1.70;;;;;;;;;;5071457;28;20024;-70
2024/01/24 10:23:16;;;;;;;11.15;2.50;;;;;;;;;;5071777;28;20021;-69
2024/01/24 10:25:41;;;;;;;5.63;2.05;;;;;;;;;;5071417;28;20109;-69
2024/01/24 10:28:13;;;;;;;8.70;1.90;;;;;;;;;;5071442;28;20043;-70
2024/01/24 10:30:40;;;;;;;5.60;1.65;;;;;;;;;;5071497;28;20021;-69
2024/01/24 10:33:10;;;;;;;7.80;1.52;;;;;;;;;;5071639;28;20085;-70
2024/01/24 10:35:36;;;;;;;;;;;;;;;;;;5071597;28;20483;-70
2024/01/24 10:38:01;;;;;;;8.82;1.95;;;;;;;;;;5071213;28;19916;-70
2024/01/24 10:40:28;;;;;;;6.28;1.45;;;;;;;;;;5071131;28;20025;-70
2024/01/24 10:42:59;;;;;;;5.60;1.83;;;;;;;;;;5071423;28;20483;-70
2024/01/24 10:45:29;;;;;;;10.60;2.47;;;;;;;;;;5070895;28;20021;-69
2024/01/24 10:47:55;;;;;;;6.53;1.42;;;;;;;;;;5072468;28;20073;-70
2024/01/24 10:50:20;;;;;;;6.85;1.63;;;;;;;;;;5074763;28;20470;-69
2024/01/24 10:52:48;;;;;;;5.05;1.45;;;;;;;;;;5074615;28;20028;-69
2024/01/24 10:55:15;;;;;;;9.50;2.10;;;;;;;;;;5074571;28;20068;-69
2024/01/24 10:57:42;;;;;;;12.32;2.08;;;;;;;;;;5074700;28;20032;-70
2024/01/24 11:00:15;;;;;;;5.90;2.15;;;;;;;;;;5074642;28;20059;-70
2024/01/24 11:02:41;;;;;;;4.47;1.58;;;;;;;;;;5074634;28;20020;-70
2024/01/24 11:05:11;;;;;;;8.85;2.42;;;;;;;;;;5074450;28;20044;-70
2024/01/24 11:07:47;;;;;;;7.55;1.35;;;;;;;;;;5074384;28;20380;-70
2024/01/24 11:10:31;;;;;;;6.70;2.20;;;;;;;;;;5074650;28;20031;-70
2024/01/24 11:12:56;;;;;;;8.45;1.98;;;;;;;;;;5074681;28;20036;-70
2024/01/24 11:15:22;;;;;;;8.88;1.55;;;;;;;;;;5074436;28;20028;-70
2024/01/24 11:18:33;;;;;;;6.22;1.70;;;;;;;;;;5074338;28;20172;-70
2024/01/24 11:21:00;;;;;;;8.68;2.15;;;;;;;;;;5074149;28;20038;-70
2024/01/24 11:23:46;;;;;;;9.35;2.05;;;;;;;;;;5074267;28;20029;-69
2024/01/24 11:26:32;;;;;;;5.47;1.65;;;;;;;;;;5074159;28;20028;-70
2024/01/24 11:29:11;;;;;;;10.20;1.45;;;;;;;;;;5074110;28;20029;-70
2024/01/24 11:31:39;;;;;;;4.77;1.67;;;;;;;;;;5074129;28;20025;-70
2024/01/24 11:34:06;;;;;;;7.10;1.77;;;;;;;;;;5073682;28;20387;-70
2024/01/24 11:36:38;;;;;;;7.10;1.38;;;;;;;;;;5073666;28;20024;-68
2024/01/24 11:39:39;;;;;;;5.03;1.27;;;;;;;;;;5073790;28;20064;-70
2024/01/24 11:42:23;;;;;;;6.18;1.48;;;;;;;;;;5073940;28;20436;-70
2024/01/24 11:44:51;;;;;;;10.27;2.28;;;;;;;;;;5073318;28;20051;-69
2024/01/24 11:47:17;;;;;;;10.05;2.13;;;;;;;;;;5073553;28;20452;-69
2024/01/24 11:49:48;;;;;;;11.77;2.38;;;;;;;;;;5073735;28;20031;-70
2024/01/24 11:52:19;;;;;;;10.30;1.90;;;;;;;;;;5073828;28;20028;-70
2024/01/24 11:54:54;;;;;;;8.38;2.28;;;;;;;;;;5055432;28;20127;-69
2024/01/24 11:57:20;;;;;;;8.85;1.85;;;;;;;;;;5073657;28;20036;-69
2024/01/24 11:59:45;;;;;;;14.43;3.25;;;;;;;;;;5072452;28;20112;-70
2024/01/24 12:02:10;;;;;;;14.07;2.30;;;;;;;;;;5073180;28;20475;-69
2024/01/24 12:04:36;;;;;;;9.90;2.22;;;;;;;;;;5073290;28;20157;-69
2024/01/24 12:07:01;;;;;;;10.60;2.00;;;;;;;;;;5073002;28;20103;-69
2024/01/24 12:09:27;;;;;;;11.35;2.60;;;;;;;;;;5073076;28;20028;-69
2024/01/24 12:11:52;;;;;;;7.90;1.90;;;;;;;;;;5073435;28;20095;-69
2024/01/24 12:14:19;;;;;;;12.30;2.72;;;;;;;;;;5073283;28;20035;-68
2024/01/24 12:16:45;;;;;;;9.93;2.22;;;;;;;;;;5073022;28;20039;-69
2024/01/24 12:19:11;;;;;;;10.88;1.80;;;;;;;;;;5072926;28;20029;-66
2024/01/24 12:21:38;;;;;;;7.95;2.10;;;;;;;;;;5055163;28;20395;-68
2024/01/24 12:24:04;;;;;;;8.43;2.15;;;;;;;;;;5072966;28;20024;-67
2024/01/24 12:26:30;;;;;;;7.93;1.83;;;;;;;;;;5073045;28;20031;-68
2024/01/24 12:28:56;;;;;;;11.65;2.42;;;;;;;;;;5072939;28;20039;-68
2024/01/24 12:31:21;;;;;;;12.60;2.85;;;;;;;;;;5072862;28;20024;-67
2024/01/24 12:33:46;;;;;;;10.25;2.25;;;;;;;;;;5072864;28;20356;-67
2024/01/24 12:36:12;;;;;;;11.23;2.50;;;;;;;;;;5072499;28;20025;-67
2024/01/24 12:38:37;;;;;;;12.98;2.97;;;;;;;;;;5072164;28;20096;-68
2024/01/24 12:41:03;;;;;;;12.45;2.58;;;;;;;;;;5072799;28;20027;-67
2024/01/24 12:43:30;;;;;;;9.43;2.20;;;;;;;;;;5072621;28;20020;-67
2024/01/24 12:45:55;;;;;;;7.75;1.65;;;;;;;;;;5072358;28;20111;-68
2024/01/24 12:48:21;;;;;;;8.40;1.92;;;;;;;;;;5072668;28;20170;-67
2024/01/24 12:50:46;;;;;;;9.75;2.05;;;;;;;;;;5054558;28;20108;-68
2024/01/24 12:53:11;;;;;;;12.07;3.15;;;;;;;;;;5072434;28;20119;-67
2024/01/24 12:55:37;;;;;;;8.07;1.60;;;;;;;;;;5072475;28;20032;-68
2024/01/24 12:58:03;;;;;;;7.38;2.08;;;;;;;;;;5072367;28;20024;-67
2024/01/24 13:00:28;;;;;;;9.00;1.90;;;;;;;;;;5072209;28;20031;-67
2024/01/24 13:02:54;;;;;;;6.35;1.90;;;;;;;;;;5072349;28;20035;-68
2024/01/24 13:05:19;;;;;;;11.88;2.13;;;;;;;;;;5072345;28;20102;-67
2024/01/24 13:07:45;;;;;;;10.02;2.00;;;;;;;;;;5071860;28;20039;-68
2024/01/24 13:10:11;;;;;;;6.80;2.03;;;;;;;;;;5054089;28;20021;-68
2024/01/24 13:12:37;;;;;;;6.35;1.20;;;;;;;;;;5054426;28;20021;-68
2024/01/24 13:15:04;;;;;;;8.93;1.55;;;;;;;;;;5072095;28;20043;-67
2024/01/24 13:17:30;;;;;;;7.78;2.20;;;;;;;;;;5072166;28;20035;-68
2024/01/24 13:19:55;;;;;;;7.60;1.98;;;;;;;;;;5072334;28;20016;-68
2024/01/24 13:22:20;;;;;;;14.40;2.13;;;;;;;;;;5072267;28;20434;-68
2024/01/24 13:24:46;;;;;;;16.20;3.65;;;;;;;;;;5071828;28;20042;-68
2024/01/24 13:27:12;;;;;;;7.32;1.83;;;;;;;;;;5072112;28;20079;-68
2024/01/24 13:29:37;;;;;;;9.18;2.25;;;;;;;;;;5071783;28;20055;-68
2024/01/24 13:32:03;;;;;;;10.05;1.80;;;;;;;;;;5054167;28;20028;-68
2024/01/24 13:34:28;;;;;;;9.15;2.08;;;;;;;;;;5071954;28;20020;-68
2024/01/24 13:36:54;;;;;;;7.18;2.42;;;;;;;;;;5071912;28;20025;-68
2024/01/24 13:39:19;;;;;;;8.88;2.13;;;;;;;;;;5071671;28;20020;-68
2024/01/24 13:41:45;;;;;;;7.75;2.08;;;;;;;;;;5072136;28;20029;-68
2024/01/24 13:44:11;;;;;;;8.50;2.13;;;;;;;;;;5071464;28;20103;-68
2024/01/24 13:46:37;;;;;;;4.43;1.27;;;;;;;;;;5071709;28;20032;-68
2024/01/24 13:49:03;;;;;;;9.68;2.33;;;;;;;;;;5072028;28;20082;-68
2024/01/24 13:51:29;;;;;;;9.20;2.13;;;;;;;;;;5071726;28;20041;-68
2024/01/24 13:53:55;;;;;;;6.80;1.88;;;;;;;;;;5071513;28;20036;-68
2024/01/24 13:56:20;;;;;;;4.60;1.50;;;;;;;;;;5071955;28;20375;-68
2024/01/24 13:58:46;;;;;;;7.18;2.38;;;;;;;;;;5071672;28;20025;-69
2024/01/24 14:01:11;;;;;;;22.73;10.82;;;;;;;;;;5071884;28;20399;-68
2024/01/24 14:03:36;;;;;;;19.67;6.65;;;;;;;;;;5071641;28;20028;-67
2024/01/24 14:06:02;;;;;;;5.72;1.55;;;;;;;;;;5071657;28;20159;-69
2024/01/24 14:08:27;;;;;;;10.00;2.20;;;;;;;;;;5071644;28;20028;-68
2024/01/24 14:10:53;;;;;;;8.63;1.90;;;;;;;;;;5071800;28;20170;-69
2024/01/24 14:13:18;;;;;;;5.38;2.38;;;;;;;;;;5071182;28;20035;-68
2024/01/24 14:15:44;;;;;;;9.05;3.75;;;;;;;;;;5071617;28;20051;-68
2024/01/24 14:18:11;;;;;;;8.57;2.17;;;;;;;;;;5071639;28;20517;-67
2024/01/24 14:20:37;;;;;;;7.85;1.95;;;;;;;;;;5071505;28;20114;-68
2024/01/24 14:23:03;;;;;;;8.88;3.40;;;;;;;;;;5073062;28;20082;-68
2024/01/24 14:25:29;;;;;;;4.78;1.95;;;;;;;;;;5075359;28;20024;-68
2024/01/24 14:27:55;;;;;;;9.00;2.08;;;;;;;;;;5075041;28;20121;-68
2024/01/24 14:30:20;;;;;;;9.10;3.72;;;;;;;;;;5075355;28;20040;-68
2024/01/24 14:32:46;;;;;;;6.97;2.88;;;;;;;;;;5075231;28;20028;-68
2024/01/24 14:35:15;;;;;;;11.15;3.50;;;;;;;;;;5074946;28;20025;-67